TimePST,TemperatureF,Dew PointF,Humidity,Sea Level PressureIn,VisibilityMPH,Wind Direction,Wind SpeedMPH,Gust SpeedMPH,PrecipitationIn,Events,Conditions,WindDirDegrees,DateUTC
12:56 AM,-9.0,-14.1,79,30.67,10.0,Calm,Calm,-,N/A,,Clear,0,2013-01-20 08:56:00
1:56 AM,-9.9,-15.0,78,30.67,10.0,Calm,Calm,-,N/A,,Clear,0,2013-01-20 09:56:00
2:56 AM,-9.9,-14.1,82,30.66,10.0,SSE,5.8,-,N/A,,Clear,160,2013-01-20 10:56:00
3:56 AM,-9.9,-15.0,78,30.67,10.0,ESE,4.6,-,N/A,,Clear,120,2013-01-20 11:56:00
4:56 AM,-8.0,-13.0,79,30.69,10.0,Calm,Calm,-,N/A,,Clear,0,2013-01-20 12:56:00
5:56 AM,-11.9,-17.0,78,30.72,10.0,Calm,Calm,-,N/A,,Clear,0,2013-01-20 13:56:00
6:30 AM,-13.0,-16.6,84,30.47,8.0,ESE,4.6,-,N/A,,Scattered Clouds,120,2013-01-20 14:30:00
6:56 AM,-11.0,-16.1,78,30.74,9.0,Calm,Calm,-,N/A,,Partly Cloudy,0,2013-01-20 14:56:00
7:44 AM,-11.2,-16.6,77,30.48,1.2,Calm,Calm,-,N/A,,Haze,0,2013-01-20 15:44:00
7:46 AM,-11.2,-16.6,77,30.48,0.8,Calm,Calm,-,N/A,,Haze,0,2013-01-20 15:46:00
7:56 AM,-8.0,-11.0,86,30.78,1.5,Calm,Calm,-,N/A,,Clear,0,2013-01-20 15:56:00
7:59 AM,-7.6,-9.4,92,30.49,3.0,Calm,Calm,-,N/A,,Clear,0,2013-01-20 15:59:00
8:56 AM,-0.9,-5.1,83,30.76,10.0,Calm,Calm,-,N/A,,Clear,0,2013-01-20 16:56:00
9:56 AM,7.0,1.9,80,30.76,10.0,Calm,Calm,-,N/A,,Clear,0,2013-01-20 17:56:00
10:56 AM,12.9,3.9,67,30.72,10.0,Calm,Calm,-,N/A,,Clear,0,2013-01-20 18:56:00
11:56 AM,18.0,6.1,60,30.69,10.0,NNE,3.5,-,N/A,,Clear,20,2013-01-20 19:56:00
12:56 PM,21.9,9.0,58,30.66,10.0,Variable,3.5,-,N/A,,Clear,0,2013-01-20 20:56:00
1:56 PM,24.1,10.9,57,30.64,10.0,NNE,6.9,-,N/A,,Clear,20,2013-01-20 21:56:00
2:56 PM,25.0,10.9,55,30.63,10.0,Calm,Calm,-,N/A,,Clear,0,2013-01-20 22:56:00
3:56 PM,25.0,10.9,55,30.63,10.0,NNE,4.6,-,N/A,,Clear,20,2013-01-20 23:56:00
4:56 PM,19.0,9.0,65,30.64,10.0,Calm,Calm,-,N/A,,Clear,0,2013-01-21 00:56:00
5:56 PM,9.0,3.9,80,30.70,10.0,Calm,Calm,-,N/A,,Clear,0,2013-01-21 01:56:00
6:56 PM,3.0,-0.0,87,30.71,9.0,SE,6.9,-,N/A,,Clear,140,2013-01-21 02:56:00
7:56 PM,3.9,1.0,88,30.69,9.0,ESE,4.6,-,N/A,,Clear,120,2013-01-21 03:56:00
8:56 PM,1.0,-2.9,83,30.69,10.0,South,4.6,-,N/A,,Clear,170,2013-01-21 04:56:00
9:56 PM,-2.9,-6.0,87,30.70,10.0,Calm,Calm,-,N/A,,Clear,0,2013-01-21 05:56:00
10:56 PM,-2.9,-7.1,82,30.67,10.0,SSE,3.5,-,N/A,,Clear,150,2013-01-21 06:56:00
11:56 PM,-4.0,-9.0,79,30.64,10.0,Calm,Calm,-,N/A,,Clear,0,2013-01-21 07:56:00